createdAt,value
2023-02-28T00:00:34.131Z,2.00
2023-02-28T00:01:33.881Z,2.01
2023-02-28T00:02:33.896Z,2.01
2023-02-28T00:03:33.935Z,2.01
2023-02-28T00:04:33.879Z,1.97
2023-02-28T00:05:33.897Z,1.97
2023-02-28T00:06:33.842Z,1.98
2023-02-28T00:07:33.813Z,2.00
2023-02-28T00:08:33.887Z,2.01
2023-02-28T00:09:33.770Z,2.00
2023-02-28T00:10:33.852Z,2.03
2023-02-28T00:11:33.904Z,2.00
2023-02-28T00:12:33.738Z,2.00
2023-02-28T00:13:33.710Z,1.98
2023-02-28T00:14:33.749Z,2.00
2023-02-28T00:15:33.712Z,1.97
2023-02-28T00:16:33.732Z,1.92
2023-02-28T00:17:33.679Z,1.86
2023-02-28T00:18:33.664Z,1.82
2023-02-28T00:19:33.630Z,1.82
2023-02-28T00:20:33.643Z,1.81
2023-02-28T00:21:33.611Z,1.81
2023-02-28T00:22:33.668Z,1.79
2023-02-28T00:23:33.582Z,1.78
2023-02-28T00:24:33.580Z,1.75
2023-02-28T00:25:33.989Z,1.75
2023-02-28T00:26:33.581Z,1.75
2023-02-28T00:27:33.532Z,1.76
2023-02-28T00:28:33.548Z,1.75
2023-02-28T00:29:33.505Z,1.75
2023-02-28T00:30:33.545Z,1.74
2023-02-28T00:31:33.489Z,1.70
2023-02-28T00:32:33.897Z,1.70
2023-02-28T00:33:33.715Z,1.71
2023-02-28T00:34:33.586Z,1.74
2023-02-28T00:35:33.878Z,1.74
2023-02-28T00:36:33.427Z,1.68
2023-02-28T00:37:33.842Z,1.71
2023-02-28T00:38:33.667Z,1.68
2023-02-28T00:39:33.761Z,1.70
2023-02-28T00:40:34.255Z,1.70
2023-02-28T00:41:33.487Z,1.71
2023-02-28T00:42:33.345Z,1.70
2023-02-28T00:43:33.328Z,1.70
2023-02-28T00:44:33.366Z,1.74
2023-02-28T00:45:33.301Z,1.74
2023-02-28T00:46:33.345Z,1.71
2023-02-28T00:47:33.393Z,1.71
2023-02-28T00:48:33.297Z,1.70
2023-02-28T00:49:33.270Z,1.66
2023-02-28T00:50:33.409Z,1.63
2023-02-28T00:51:33.276Z,1.61
2023-02-28T00:52:33.226Z,1.60
2023-02-28T00:53:33.457Z,1.60
2023-02-28T00:54:33.286Z,1.52
2023-02-28T00:55:33.180Z,1.49
2023-02-28T00:56:33.469Z,1.48
2023-02-28T00:57:33.163Z,1.49
2023-02-28T00:58:33.165Z,1.49
2023-02-28T00:59:33.115Z,1.45
2023-02-28T01:00:33.295Z,1.45
2023-02-28T01:01:33.171Z,1.42
2023-02-28T01:02:33.097Z,1.42
2023-02-28T01:03:33.087Z,1.42
2023-02-28T01:04:33.158Z,1.45
2023-02-28T01:05:33.255Z,1.45
2023-02-28T01:06:33.056Z,1.43
2023-02-28T01:07:33.260Z,1.43
2023-02-28T01:08:32.996Z,1.42
2023-02-28T01:09:32.985Z,1.46
2023-02-28T01:10:33.065Z,1.48
2023-02-28T01:11:33.255Z,1.50
2023-02-28T01:12:32.991Z,1.50
2023-02-28T01:13:32.977Z,1.53
2023-02-28T01:14:32.977Z,1.50
2023-02-28T01:15:32.985Z,1.52
2023-02-28T01:16:33.051Z,1.56
2023-02-28T01:17:32.901Z,1.58
2023-02-28T01:18:32.875Z,1.57
2023-02-28T01:19:32.845Z,1.56
2023-02-28T01:20:32.855Z,1.52
2023-02-28T01:21:32.964Z,1.49
2023-02-28T01:22:32.828Z,1.50
2023-02-28T01:23:32.819Z,1.53
2023-02-28T01:24:34.392Z,1.50
2023-02-28T01:25:32.838Z,1.52
2023-02-28T01:26:32.783Z,1.56
2023-02-28T01:27:32.767Z,1.56
2023-02-28T01:28:32.741Z,1.57
2023-02-28T01:29:32.714Z,1.56
2023-02-28T01:30:32.739Z,1.56
2023-02-28T01:31:32.996Z,1.56
2023-02-28T01:32:32.693Z,1.53
2023-02-28T01:33:32.680Z,1.53
2023-02-28T01:34:32.665Z,1.53
2023-02-28T01:35:32.693Z,1.52
2023-02-28T01:36:32.949Z,1.52
2023-02-28T01:37:32.636Z,1.52
2023-02-28T01:38:32.612Z,1.50
2023-02-28T01:39:32.584Z,1.49
2023-02-28T01:40:32.582Z,1.49
2023-02-28T01:41:32.801Z,1.50
2023-02-28T01:42:32.572Z,1.53
2023-02-28T01:43:32.570Z,1.57
2023-02-28T01:44:32.658Z,1.57
2023-02-28T01:45:32.605Z,1.57
2023-02-28T01:46:32.521Z,1.58
2023-02-28T01:47:32.608Z,1.57
2023-02-28T01:48:32.484Z,1.57
2023-02-28T01:49:32.459Z,1.56
2023-02-28T01:50:32.450Z,1.56
2023-02-28T01:51:32.437Z,1.52
2023-02-28T01:52:32.450Z,1.50
2023-02-28T01:53:32.398Z,1.49
2023-02-28T01:54:32.398Z,1.48
2023-02-28T01:55:32.376Z,1.45
2023-02-28T01:56:32.388Z,1.43
2023-02-28T01:57:32.399Z,1.43
2023-02-28T01:58:32.347Z,1.42
2023-02-28T01:59:32.347Z,1.43
2023-02-28T02:00:32.413Z,1.36
2023-02-28T02:01:32.602Z,1.31
2023-02-28T02:02:32.546Z,1.30
2023-02-28T02:03:32.303Z,1.27
2023-02-28T02:04:32.476Z,1.28
2023-02-28T02:05:32.356Z,1.28
2023-02-28T02:06:32.291Z,1.30
2023-02-28T02:07:32.295Z,1.30
2023-02-28T02:08:32.229Z,1.31
2023-02-28T02:09:32.270Z,1.31
2023-02-28T02:10:32.237Z,1.31
2023-02-28T02:11:32.176Z,1.32
2023-02-28T02:12:32.197Z,1.31
2023-02-28T02:13:32.167Z,1.25
2023-02-28T02:14:32.191Z,1.24
2023-02-28T02:15:32.186Z,1.24
2023-02-28T02:16:32.116Z,1.22
2023-02-28T02:17:32.317Z,1.24
2023-02-28T02:18:32.116Z,1.21
2023-02-28T02:19:32.097Z,1.18
2023-02-28T02:20:32.054Z,1.14
2023-02-28T02:21:32.044Z,1.13
2023-02-28T02:22:32.024Z,1.13
2023-02-28T02:23:32.485Z,1.14
2023-02-28T02:24:33.090Z,1.14
2023-02-28T02:25:32.008Z,1.14
2023-02-28T02:26:31.995Z,1.13
2023-02-28T02:27:32.097Z,1.12
2023-02-28T02:28:31.998Z,1.12
2023-02-28T02:29:32.025Z,1.09
2023-02-28T02:30:31.938Z,1.06
2023-02-28T02:31:32.371Z,1.06
2023-02-28T02:32:31.882Z,1.06
2023-02-28T02:33:31.909Z,1.04
2023-02-28T02:34:31.910Z,1.02
2023-02-28T02:35:31.911Z,1.02
2023-02-28T02:36:31.871Z,1.00
2023-02-28T02:37:31.833Z,1.00
2023-02-28T02:38:31.838Z,0.99
2023-02-28T02:39:31.875Z,0.95
2023-02-28T02:40:31.806Z,0.94
2023-02-28T02:41:31.906Z,0.92
2023-02-28T02:42:31.783Z,0.91
2023-02-28T02:43:31.796Z,0.91
2023-02-28T02:44:31.765Z,0.91
2023-02-28T02:45:31.787Z,0.91
2023-02-28T02:46:31.781Z,0.88
2023-02-28T02:47:31.735Z,0.82
2023-02-28T02:48:31.740Z,0.82
2023-02-28T02:49:31.723Z,0.82
2023-02-28T02:50:31.724Z,0.84
2023-02-28T02:51:31.850Z,0.86
2023-02-28T02:52:31.644Z,0.88
2023-02-28T02:53:31.674Z,0.91
2023-02-28T02:54:31.621Z,0.91
2023-02-28T02:55:31.652Z,0.86
2023-02-28T02:56:31.603Z,0.86
2023-02-28T02:57:31.584Z,0.84
2023-02-28T02:58:31.573Z,0.84
2023-02-28T02:59:31.655Z,0.81
2023-02-28T03:00:31.562Z,0.82
2023-02-28T03:01:31.915Z,0.81
2023-02-28T03:02:31.568Z,0.82
2023-02-28T03:03:31.523Z,0.84
2023-02-28T03:04:31.503Z,0.82
2023-02-28T03:05:31.532Z,0.84
2023-02-28T03:06:31.525Z,0.84
2023-02-28T03:07:31.524Z,0.84
2023-02-28T03:08:31.440Z,0.85
2023-02-28T03:09:31.443Z,0.85
2023-02-28T03:10:31.453Z,0.86
2023-02-28T03:11:31.695Z,0.84
2023-02-28T03:12:31.428Z,0.81
2023-02-28T03:13:31.428Z,0.78
2023-02-28T03:14:31.369Z,0.81
2023-02-28T03:15:31.414Z,0.84
2023-02-28T03:16:31.397Z,0.85
2023-02-28T03:17:31.331Z,0.81
2023-02-28T03:18:31.368Z,0.82
2023-02-28T03:19:31.330Z,0.82
2023-02-28T03:20:31.313Z,0.78
2023-02-28T03:21:31.476Z,0.76
2023-02-28T03:22:31.258Z,0.76
2023-02-28T03:23:31.275Z,0.73
2023-02-28T03:24:31.250Z,0.73
2023-02-28T03:25:31.244Z,0.71
2023-02-28T03:26:31.210Z,0.71
2023-02-28T03:27:31.231Z,0.70
2023-02-28T03:28:31.184Z,0.68
2023-02-28T03:29:31.163Z,0.68
2023-02-28T03:30:31.255Z,0.70
2023-02-28T03:31:31.482Z,0.70
2023-02-28T03:32:31.152Z,0.70
2023-02-28T03:33:31.135Z,0.71
2023-02-28T03:34:31.104Z,0.67
2023-02-28T03:35:31.164Z,0.67
2023-02-28T03:36:31.075Z,0.68
2023-02-28T03:37:31.074Z,0.70
2023-02-28T03:38:31.050Z,0.68
2023-02-28T03:39:31.053Z,0.68
2023-02-28T03:40:31.036Z,0.68
2023-02-28T03:41:31.368Z,0.67
2023-02-28T03:42:31.031Z,0.66
2023-02-28T03:43:30.982Z,0.67
2023-02-28T03:44:30.989Z,0.68
2023-02-28T03:45:31.020Z,0.67
2023-02-28T03:46:30.965Z,0.64
2023-02-28T03:47:30.955Z,0.67
2023-02-28T03:48:31.028Z,0.61
2023-02-28T03:49:30.973Z,0.58
2023-02-28T03:50:30.925Z,0.51
2023-02-28T03:51:30.995Z,0.49
2023-02-28T03:52:30.956Z,0.52
2023-02-28T03:53:30.882Z,0.55
2023-02-28T03:54:30.860Z,0.55
2023-02-28T03:55:30.855Z,0.55
2023-02-28T03:56:30.843Z,0.56
2023-02-28T03:57:30.904Z,0.58
2023-02-28T03:58:30.811Z,0.56
2023-02-28T03:59:30.815Z,0.55
2023-02-28T04:00:30.824Z,0.59
2023-02-28T04:01:31.218Z,0.58
2023-02-28T04:02:30.743Z,0.59
2023-02-28T04:03:30.741Z,0.61
2023-02-28T04:04:30.783Z,0.63
2023-02-28T04:05:30.722Z,0.64
2023-02-28T04:06:30.712Z,0.63
2023-02-28T04:07:30.692Z,0.63
2023-02-28T04:08:30.669Z,0.59
2023-02-28T04:09:30.675Z,0.56
2023-02-28T04:10:30.684Z,0.58
2023-02-28T04:11:30.948Z,0.52
2023-02-28T04:12:30.616Z,0.52
2023-02-28T04:13:30.594Z,0.55
2023-02-28T04:14:30.595Z,0.55
2023-02-28T04:15:30.593Z,0.55
2023-02-28T04:16:35.291Z,0.52
2023-02-28T04:17:31.561Z,0.55
2023-02-28T04:18:30.555Z,0.52
2023-02-28T04:19:30.564Z,0.55
2023-02-28T04:20:30.552Z,0.55
2023-02-28T04:21:30.766Z,0.56
2023-02-28T04:22:30.493Z,0.55
2023-02-28T04:23:30.481Z,0.56
2023-02-28T04:24:30.461Z,0.56
2023-02-28T04:25:30.469Z,0.55
2023-02-28T04:26:30.492Z,0.52
2023-02-28T04:27:32.674Z,0.52
2023-02-28T04:28:30.405Z,0.51
2023-02-28T04:29:30.391Z,0.47
2023-02-28T04:30:30.404Z,0.45
2023-02-28T04:31:30.735Z,0.48
2023-02-28T04:32:30.396Z,0.47
2023-02-28T04:33:30.371Z,0.47
2023-02-28T04:34:30.373Z,0.45
2023-02-28T04:35:30.348Z,0.47
2023-02-28T04:36:30.345Z,0.44
2023-02-28T04:37:30.320Z,0.45
2023-02-28T04:38:30.280Z,0.45
2023-02-28T04:39:30.261Z,0.47
2023-02-28T04:40:30.300Z,0.48
2023-02-28T04:41:32.519Z,0.47
2023-02-28T04:42:30.220Z,0.49
2023-02-28T04:43:30.210Z,0.49
2023-02-28T04:44:30.189Z,0.52
2023-02-28T04:45:30.203Z,0.51
2023-02-28T04:46:30.185Z,0.51
2023-02-28T04:47:30.198Z,0.51
2023-02-28T04:48:30.146Z,0.47
2023-02-28T04:49:30.133Z,0.47
2023-02-28T04:50:30.287Z,0.47
2023-02-28T04:51:30.607Z,0.47
2023-02-28T04:52:30.099Z,0.44
2023-02-28T04:53:30.086Z,0.42
2023-02-28T04:54:30.070Z,0.37
2023-02-28T04:55:30.058Z,0.33
2023-02-28T04:56:30.056Z,0.33
2023-02-28T04:57:30.034Z,0.30
2023-02-28T04:58:30.023Z,0.31
2023-02-28T04:59:30.109Z,0.33
2023-02-28T05:00:30.004Z,0.31
2023-02-28T05:01:30.314Z,0.30
2023-02-28T05:02:30.094Z,0.31
2023-02-28T05:03:29.944Z,0.31
2023-02-28T05:04:29.958Z,0.30
2023-02-28T05:05:29.913Z,0.29
2023-02-28T05:06:29.924Z,0.29
2023-02-28T05:07:29.905Z,0.27
2023-02-28T05:08:29.871Z,0.27
2023-02-28T05:09:29.874Z,0.31
2023-02-28T05:10:29.881Z,0.33
2023-02-28T05:11:30.261Z,0.34
2023-02-28T05:12:29.852Z,0.31
2023-02-28T05:13:29.848Z,0.31
2023-02-28T05:14:29.842Z,0.34
2023-02-28T05:15:29.799Z,0.34
2023-02-28T05:16:29.827Z,0.36
2023-02-28T05:17:29.848Z,0.33
2023-02-28T05:18:29.832Z,0.33
2023-02-28T05:19:29.783Z,0.33
2023-02-28T05:20:29.770Z,0.31
2023-02-28T05:21:30.060Z,0.31
2023-02-28T05:22:29.731Z,0.31
2023-02-28T05:23:29.699Z,0.31
2023-02-28T05:24:29.685Z,0.29
2023-02-28T05:25:29.665Z,0.29
2023-02-28T05:26:29.712Z,0.31
2023-02-28T05:27:29.632Z,0.30
2023-02-28T05:28:29.664Z,0.29
2023-02-28T05:29:29.754Z,0.29
2023-02-28T05:30:29.612Z,0.29
2023-02-28T05:31:30.015Z,0.27
2023-02-28T05:32:29.676Z,0.26
2023-02-28T05:33:29.559Z,0.23
2023-02-28T05:34:29.573Z,0.20
2023-02-28T05:35:29.578Z,0.24
2023-02-28T05:36:29.550Z,0.24
2023-02-28T05:37:29.511Z,0.24
2023-02-28T05:38:29.532Z,0.26
2023-02-28T05:39:29.469Z,0.29
2023-02-28T05:40:29.491Z,0.29
2023-02-28T05:41:29.820Z,0.29
2023-02-28T05:42:29.449Z,0.29
2023-02-28T05:43:29.520Z,0.26
2023-02-28T05:44:29.444Z,0.27
2023-02-28T05:45:29.511Z,0.30
2023-02-28T05:46:29.420Z,0.29
2023-02-28T05:47:29.388Z,0.31
2023-02-28T05:48:29.390Z,1.64
2023-02-28T05:49:29.360Z,1.42
2023-02-28T05:50:29.341Z,1.32
2023-02-28T05:51:29.657Z,1.22
2023-02-28T05:52:29.339Z,1.10
2023-02-28T05:53:29.294Z,1.00
2023-02-28T05:54:29.290Z,0.91
2023-02-28T05:55:29.273Z,0.86
2023-02-28T05:56:29.279Z,0.81
2023-02-28T05:57:29.261Z,0.70
2023-02-28T05:58:29.220Z,0.66
2023-02-28T05:59:29.224Z,0.59
2023-02-28T06:00:29.211Z,0.52
2023-02-28T06:01:29.508Z,0.48
2023-02-28T06:02:29.236Z,0.48
2023-02-28T06:03:29.216Z,0.48
2023-02-28T06:04:32.191Z,0.47
2023-02-28T06:05:29.160Z,0.47
2023-02-28T06:06:29.191Z,0.45
2023-02-28T06:07:29.139Z,0.42
2023-02-28T06:08:29.131Z,0.44
2023-02-28T06:09:29.102Z,0.39
2023-02-28T06:10:29.171Z,0.39
2023-02-28T06:11:29.732Z,0.39
2023-02-28T06:12:29.071Z,0.34
2023-02-28T06:13:29.045Z,0.30
2023-02-28T06:14:29.032Z,0.29
2023-02-28T06:15:29.042Z,0.24
2023-02-28T06:16:29.126Z,0.24
2023-02-28T06:17:29.001Z,0.23
2023-02-28T06:18:28.982Z,0.24
2023-02-28T06:19:29.002Z,0.26
2023-02-28T06:20:28.954Z,0.27
2023-02-28T06:21:29.427Z,0.27
2023-02-28T06:22:28.954Z,0.24
2023-02-28T06:23:28.982Z,0.23
2023-02-28T06:24:28.937Z,0.23
2023-02-28T06:25:28.990Z,0.24
2023-02-28T06:26:28.892Z,0.24
2023-02-28T06:27:28.895Z,0.24
2023-02-28T06:28:28.861Z,0.24
2023-02-28T06:29:28.850Z,0.23
2023-02-28T06:30:28.818Z,0.26
2023-02-28T06:31:29.195Z,0.30
2023-02-28T06:32:28.860Z,0.31
2023-02-28T06:33:28.843Z,0.31
2023-02-28T06:34:28.781Z,0.33
2023-02-28T06:35:28.787Z,0.34
2023-02-28T06:36:28.761Z,0.37
2023-02-28T06:37:28.751Z,0.42
2023-02-28T06:38:28.723Z,0.45
2023-02-28T06:39:28.715Z,0.45
2023-02-28T06:40:28.723Z,0.48
2023-02-28T06:41:29.509Z,0.51
2023-02-28T06:42:28.773Z,0.51
2023-02-28T06:43:28.661Z,0.51
2023-02-28T06:44:28.693Z,0.55
2023-02-28T06:45:28.651Z,0.52
2023-02-28T06:46:28.707Z,0.56
2023-02-28T06:47:28.620Z,0.58
2023-02-28T06:48:28.607Z,0.61
2023-02-28T06:49:28.603Z,0.64
2023-02-28T06:50:28.582Z,0.67
2023-02-28T06:51:28.870Z,0.67
2023-02-28T06:52:28.589Z,0.70
2023-02-28T06:53:28.540Z,0.70
2023-02-28T06:54:28.607Z,0.73
2023-02-28T06:55:30.665Z,0.74
2023-02-28T06:56:28.493Z,0.71
2023-02-28T06:57:28.513Z,0.70
2023-02-28T06:58:28.473Z,0.71
2023-02-28T06:59:28.483Z,0.71
2023-02-28T07:00:28.441Z,0.73
2023-02-28T07:01:28.822Z,0.71
2023-02-28T07:02:28.470Z,0.73
2023-02-28T07:03:28.411Z,0.70
2023-02-28T07:04:28.424Z,0.70
2023-02-28T07:05:28.392Z,0.68
2023-02-28T07:06:28.389Z,0.68
2023-02-28T07:07:28.353Z,0.66
2023-02-28T07:08:28.345Z,0.68
2023-02-28T07:09:28.317Z,0.71
2023-02-28T07:10:28.318Z,0.71
2023-02-28T07:11:28.923Z,0.71
2023-02-28T07:12:28.314Z,0.73
2023-02-28T07:13:28.286Z,0.70
2023-02-28T07:14:28.258Z,0.70
2023-02-28T07:15:28.264Z,0.68
2023-02-28T07:16:28.278Z,0.67
2023-02-28T07:17:28.224Z,0.67
2023-02-28T07:18:28.214Z,0.66
2023-02-28T07:19:28.186Z,0.63
2023-02-28T07:20:28.316Z,0.64
2023-02-28T07:21:28.482Z,0.64
2023-02-28T07:22:28.170Z,0.63
2023-02-28T07:23:28.161Z,0.64
2023-02-28T07:24:28.124Z,0.67
2023-02-28T07:25:28.120Z,0.66
2023-02-28T07:26:28.120Z,0.73
2023-02-28T07:27:28.123Z,0.74
2023-02-28T07:28:28.117Z,0.81
2023-02-28T07:29:28.090Z,0.84
2023-02-28T07:30:28.091Z,0.86
2023-02-28T07:31:28.590Z,0.89
2023-02-28T07:32:28.084Z,0.92
2023-02-28T07:33:28.022Z,0.94
2023-02-28T07:34:28.009Z,0.99
2023-02-28T07:35:28.014Z,1.02
2023-02-28T07:36:27.981Z,1.06
2023-02-28T07:37:27.952Z,1.07
2023-02-28T07:38:27.966Z,1.09
2023-02-28T07:39:27.990Z,1.06
2023-02-28T07:40:27.972Z,1.12
2023-02-28T07:41:28.180Z,1.16
2023-02-28T07:42:27.915Z,1.21
2023-02-28T07:43:27.899Z,1.24
2023-02-28T07:44:27.906Z,1.28
2023-02-28T07:45:27.877Z,1.31
2023-02-28T07:46:30.514Z,1.36
2023-02-28T07:47:27.842Z,1.45
2023-02-28T07:48:27.847Z,1.52
2023-02-28T07:49:27.840Z,1.56
2023-02-28T07:50:27.847Z,1.60
2023-02-28T07:51:28.247Z,1.63
2023-02-28T07:52:27.789Z,1.68
2023-02-28T07:53:27.788Z,1.71
2023-02-28T07:54:27.749Z,1.71
2023-02-28T07:55:27.726Z,1.74
2023-02-28T07:56:28.404Z,1.74
2023-02-28T07:57:27.728Z,1.76
2023-02-28T07:58:27.718Z,1.79
2023-02-28T07:59:27.718Z,1.82
2023-02-28T08:00:27.802Z,1.86
2023-02-28T08:01:34.714Z,1.86
2023-02-28T08:02:27.603Z,1.92
2023-02-28T08:03:27.609Z,1.93
2023-02-28T08:04:27.586Z,1.97
2023-02-28T08:05:27.562Z,1.97
2023-02-28T08:06:27.588Z,2.01
2023-02-28T08:07:27.553Z,2.03
2023-02-28T08:08:27.543Z,2.05
2023-02-28T08:09:27.515Z,2.08
2023-02-28T08:10:27.524Z,2.10
2023-02-28T08:11:28.014Z,2.14
2023-02-28T08:12:27.479Z,2.15
2023-02-28T08:13:27.472Z,2.18
2023-02-28T08:14:27.449Z,2.16
2023-02-28T08:15:27.431Z,2.21
2023-02-28T08:16:27.494Z,2.21
2023-02-28T08:17:27.416Z,2.23
2023-02-28T08:18:27.409Z,2.25
2023-02-28T08:19:27.381Z,2.23
2023-02-28T08:20:27.360Z,2.25
2023-02-28T08:21:27.748Z,2.25
2023-02-28T08:22:27.340Z,2.26
2023-02-28T08:23:27.341Z,2.26
2023-02-28T08:24:27.317Z,2.26
2023-02-28T08:25:27.298Z,2.26
2023-02-28T08:26:27.281Z,2.28
2023-02-28T08:27:27.279Z,2.33
2023-02-28T08:28:27.724Z,2.36
2023-02-28T08:29:27.249Z,2.40
2023-02-28T08:30:27.361Z,2.44
2023-02-28T08:31:27.366Z,2.50
2023-02-28T08:32:30.106Z,2.55
2023-02-28T08:33:27.200Z,2.55
2023-02-28T08:34:27.198Z,2.57
2023-02-28T08:35:27.204Z,2.59
2023-02-28T08:36:27.165Z,2.64
2023-02-28T08:37:27.169Z,2.69
2023-02-28T08:38:27.127Z,2.72
2023-02-28T08:39:27.136Z,2.75
2023-02-28T08:40:27.099Z,2.73
2023-02-28T08:41:27.415Z,2.72
2023-02-28T08:42:27.091Z,2.70
2023-02-28T08:43:27.071Z,2.73
2023-02-28T08:44:27.068Z,2.75
2023-02-28T08:45:27.333Z,2.75
2023-02-28T08:46:27.025Z,2.79
2023-02-28T08:47:27.013Z,2.80
2023-02-28T08:48:26.997Z,2.79
2023-02-28T08:49:27.012Z,2.79
2023-02-28T08:50:26.980Z,2.82
2023-02-28T08:51:27.265Z,2.85
2023-02-28T08:52:26.946Z,2.90
2023-02-28T08:53:26.945Z,2.90
2023-02-28T08:54:26.932Z,2.88
2023-02-28T08:55:26.914Z,2.90
2023-02-28T08:56:26.895Z,2.88
2023-02-28T08:57:26.880Z,2.91
2023-02-28T08:58:26.868Z,2.93
2023-02-28T08:59:26.873Z,2.97
2023-02-28T09:00:26.846Z,3.00
2023-02-28T09:01:26.916Z,3.01
2023-02-28T09:02:26.820Z,3.05
2023-02-28T09:03:26.801Z,3.08
2023-02-28T09:04:26.844Z,3.12
2023-02-28T09:05:26.778Z,3.15
2023-02-28T09:06:26.798Z,3.13
2023-02-28T09:07:26.769Z,3.13
2023-02-28T09:08:26.738Z,3.13
2023-02-28T09:09:26.754Z,3.16
2023-02-28T09:10:26.711Z,3.22
2023-02-28T09:11:26.704Z,3.29
2023-02-28T09:12:26.686Z,3.36
2023-02-28T09:13:26.670Z,3.37
2023-02-28T09:14:26.668Z,3.46
2023-02-28T09:15:26.648Z,3.46
2023-02-28T09:16:26.668Z,3.49
2023-02-28T09:17:30.729Z,3.43
2023-02-28T09:18:26.599Z,3.46
2023-02-28T09:19:26.618Z,3.48
2023-02-28T09:20:26.582Z,3.49
2023-02-28T09:21:26.570Z,3.52
2023-02-28T09:22:26.550Z,3.46
2023-02-28T09:23:26.550Z,3.45
2023-02-28T09:24:26.543Z,3.43
2023-02-28T09:25:26.519Z,3.45
2023-02-28T09:26:26.539Z,3.49
2023-02-28T09:27:26.501Z,3.53
2023-02-28T09:28:26.471Z,3.56
2023-02-28T09:29:26.481Z,3.55
2023-02-28T09:30:26.499Z,3.58
2023-02-28T09:31:26.447Z,3.63
2023-02-28T09:32:26.480Z,3.66
2023-02-28T09:33:26.633Z,3.70
2023-02-28T09:34:26.442Z,3.74
2023-02-28T09:35:26.390Z,3.77
2023-02-28T09:36:34.556Z,3.84
2023-02-28T09:37:27.362Z,3.85
2023-02-28T09:38:26.343Z,3.88
2023-02-28T09:39:26.352Z,3.91
2023-02-28T09:40:26.321Z,3.99
2023-02-28T09:41:26.361Z,4.00
2023-02-28T09:42:26.300Z,4.00
2023-02-28T09:43:26.306Z,4.02
2023-02-28T09:44:26.284Z,4.07
2023-02-28T09:45:26.261Z,4.09
2023-02-28T09:46:26.313Z,4.07
2023-02-28T09:47:26.241Z,4.10
2023-02-28T09:48:26.223Z,4.18
2023-02-28T09:49:26.232Z,4.20
2023-02-28T09:50:26.194Z,4.22
2023-02-28T09:51:26.194Z,4.28
2023-02-28T09:52:26.172Z,4.31
2023-02-28T09:53:26.158Z,4.32
2023-02-28T09:54:26.163Z,4.36
2023-02-28T09:55:26.426Z,4.30
2023-02-28T09:56:26.154Z,4.30
2023-02-28T09:57:26.124Z,4.27
2023-02-28T09:58:26.093Z,4.31
2023-02-28T09:59:26.100Z,4.30
2023-02-28T10:00:26.075Z,4.25
2023-02-28T10:01:26.083Z,4.30
2023-02-28T10:02:26.045Z,4.30
2023-02-28T10:03:26.036Z,4.32
2023-02-28T10:04:26.095Z,4.38
2023-02-28T10:05:26.002Z,4.43
2023-02-28T10:06:25.982Z,4.48
2023-02-28T10:07:26.360Z,4.56
2023-02-28T10:08:26.016Z,4.58
2023-02-28T10:09:25.954Z,4.60
2023-02-28T10:10:25.950Z,4.64
2023-02-28T10:11:25.922Z,4.66
2023-02-28T10:12:25.914Z,4.68
2023-02-28T10:13:25.908Z,4.68
2023-02-28T10:14:25.881Z,4.70
2023-02-28T10:15:25.888Z,4.74
2023-02-28T10:16:25.857Z,4.75
2023-02-28T10:17:25.849Z,4.75
2023-02-28T10:18:25.828Z,4.70
2023-02-28T10:19:25.820Z,4.76
2023-02-28T10:20:25.818Z,4.78
2023-02-28T10:21:25.808Z,4.82
2023-02-28T10:22:25.797Z,4.87
2023-02-28T10:23:25.770Z,4.92
2023-02-28T10:24:25.748Z,5.00
2023-02-28T10:25:25.748Z,5.00
2023-02-28T10:26:25.732Z,5.02
2023-02-28T10:27:25.737Z,5.04
2023-02-28T10:28:25.709Z,5.05
2023-02-28T10:29:25.697Z,5.08
2023-02-28T10:30:25.678Z,5.08
2023-02-28T10:31:26.484Z,5.08
2023-02-28T10:32:25.843Z,5.07
2023-02-28T10:33:25.700Z,5.13
2023-02-28T10:34:25.620Z,5.13
2023-02-28T10:35:25.619Z,5.18
2023-02-28T10:36:25.630Z,5.19
2023-02-28T10:37:25.617Z,5.22
2023-02-28T10:38:25.577Z,5.26
2023-02-28T10:39:25.584Z,5.10
2023-02-28T10:40:25.551Z,5.02
2023-02-28T10:41:25.541Z,5.08
2023-02-28T10:42:25.542Z,5.13
2023-02-28T10:43:25.532Z,5.10
2023-02-28T10:44:25.506Z,5.10
2023-02-28T10:45:25.496Z,5.19
2023-02-28T10:46:25.527Z,5.22
2023-02-28T10:47:25.480Z,5.28
2023-02-28T10:48:25.450Z,5.34
2023-02-28T10:49:25.452Z,5.44
2023-02-28T10:50:25.422Z,5.54
2023-02-28T10:51:25.415Z,5.62
2023-02-28T10:52:25.417Z,5.69
2023-02-28T10:53:25.410Z,5.77
2023-02-28T10:54:25.373Z,5.83
2023-02-28T10:55:25.358Z,5.83
2023-02-28T10:56:25.348Z,5.83
2023-02-28T10:57:25.397Z,5.84
2023-02-28T10:58:25.320Z,5.81
2023-02-28T10:59:25.308Z,5.90
2023-02-28T11:00:25.301Z,5.92
2023-02-28T11:01:25.414Z,5.98
2023-02-28T11:02:25.284Z,6.06
2023-02-28T11:03:25.257Z,6.15
2023-02-28T11:04:25.259Z,6.16
2023-02-28T11:05:25.297Z,6.22
2023-02-28T11:06:25.276Z,6.17
2023-02-28T11:07:27.653Z,6.16
2023-02-28T11:08:25.224Z,6.10
2023-02-28T11:09:25.174Z,6.02
2023-02-28T11:10:25.156Z,5.97
2023-02-28T11:11:25.144Z,6.01
2023-02-28T11:12:25.135Z,5.99
2023-02-28T11:13:25.144Z,5.98
2023-02-28T11:14:25.105Z,6.01
2023-02-28T11:15:25.097Z,5.98
2023-02-28T11:16:25.291Z,5.94
2023-02-28T11:17:25.161Z,5.80
2023-02-28T11:18:25.085Z,5.72
2023-02-28T11:19:25.051Z,5.62
2023-02-28T11:20:25.031Z,5.67
2023-02-28T11:21:25.022Z,5.72
2023-02-28T11:22:25.038Z,5.80
2023-02-28T11:23:25.014Z,5.79
2023-02-28T11:24:24.988Z,5.76
2023-02-28T11:25:24.974Z,5.87
2023-02-28T11:26:24.943Z,5.94
2023-02-28T11:27:24.931Z,5.98
2023-02-28T11:28:24.932Z,6.06
2023-02-28T11:29:24.921Z,6.10
2023-02-28T11:30:24.892Z,6.12
2023-02-28T11:31:24.928Z,6.12
2023-02-28T11:32:25.018Z,6.07
2023-02-28T11:33:24.880Z,6.02
2023-02-28T11:34:24.850Z,5.99
2023-02-28T11:35:24.848Z,6.01
2023-02-28T11:36:24.828Z,6.02
2023-02-28T11:37:24.819Z,6.06
2023-02-28T11:38:24.811Z,6.10
2023-02-28T11:39:24.788Z,6.10
2023-02-28T11:40:24.772Z,6.25
2023-02-28T11:41:24.765Z,6.32
2023-02-28T11:42:24.741Z,6.34
2023-02-28T11:43:24.780Z,6.26
2023-02-28T11:44:24.725Z,6.20
2023-02-28T11:45:24.711Z,6.22
2023-02-28T11:46:24.715Z,6.20
2023-02-28T11:47:24.688Z,6.17
2023-02-28T11:48:24.672Z,6.17
2023-02-28T11:49:24.678Z,6.22
2023-02-28T11:50:24.641Z,6.26
2023-02-28T11:51:24.638Z,6.31
2023-02-28T11:52:24.609Z,6.34
2023-02-28T11:53:26.340Z,6.35
2023-02-28T11:54:24.611Z,6.29
2023-02-28T11:55:24.587Z,6.35
2023-02-28T11:56:24.563Z,6.39
2023-02-28T11:57:24.564Z,6.47
2023-02-28T11:58:24.553Z,6.43
2023-02-28T11:59:24.554Z,6.47
2023-02-28T12:00:24.535Z,6.44
2023-02-28T12:01:24.523Z,6.43
2023-02-28T12:02:24.527Z,6.39
2023-02-28T12:03:24.563Z,6.46
2023-02-28T12:04:24.485Z,6.44
2023-02-28T12:05:24.466Z,6.38
2023-02-28T12:06:24.439Z,6.28
2023-02-28T12:07:24.442Z,6.25
2023-02-28T12:08:24.424Z,6.22
2023-02-28T12:09:24.419Z,6.31
2023-02-28T12:10:24.390Z,6.43
2023-02-28T12:11:24.400Z,6.47
2023-02-28T12:12:25.379Z,6.47
2023-02-28T12:13:24.361Z,6.44
2023-02-28T12:14:24.351Z,6.41
2023-02-28T12:15:24.334Z,6.38
2023-02-28T12:16:24.331Z,6.29
2023-02-28T12:17:24.314Z,6.26
2023-02-28T12:18:24.292Z,6.26
2023-02-28T12:19:24.300Z,6.28
2023-02-28T12:20:24.262Z,6.39
2023-02-28T12:21:24.262Z,6.46
2023-02-28T12:22:24.232Z,6.56
2023-02-28T12:23:24.223Z,6.65
2023-02-28T12:24:24.233Z,6.64
2023-02-28T12:25:24.204Z,6.62
2023-02-28T12:26:24.182Z,6.60
2023-02-28T12:27:25.928Z,6.64
2023-02-28T12:28:24.159Z,6.67
2023-02-28T12:29:24.160Z,6.74
2023-02-28T12:30:24.129Z,6.75
2023-02-28T12:31:24.202Z,6.78
2023-02-28T12:32:24.189Z,6.70
2023-02-28T12:33:24.079Z,6.72
2023-02-28T12:34:24.081Z,6.68
2023-02-28T12:35:24.067Z,6.70
2023-02-28T12:36:24.049Z,6.74
2023-02-28T12:37:24.028Z,6.78
2023-02-28T12:38:24.024Z,6.82
2023-02-28T12:39:24.150Z,6.86
2023-02-28T12:40:24.012Z,6.92
2023-02-28T12:41:24.031Z,6.93
2023-02-28T12:42:23.971Z,6.92
2023-02-28T12:43:23.957Z,6.75
2023-02-28T12:44:23.939Z,6.72
2023-02-28T12:45:24.035Z,6.72
2023-02-28T12:46:24.127Z,6.65
2023-02-28T12:47:23.900Z,6.56
2023-02-28T12:48:23.888Z,6.56
2023-02-28T12:49:23.867Z,6.65
2023-02-28T12:50:23.883Z,6.74
2023-02-28T12:51:23.854Z,6.72
2023-02-28T12:52:23.837Z,6.60
2023-02-28T12:53:23.825Z,6.50
2023-02-28T12:54:24.034Z,6.52
2023-02-28T12:55:23.806Z,6.50
2023-02-28T12:56:23.791Z,6.46
2023-02-28T12:57:23.792Z,6.41
2023-02-28T12:58:23.763Z,6.44
2023-02-28T12:59:23.748Z,6.46
2023-02-28T13:00:23.770Z,6.31
2023-02-28T13:01:23.768Z,6.12
2023-02-28T13:02:23.761Z,6.09
2023-02-28T13:03:23.710Z,6.01
2023-02-28T13:04:23.684Z,6.01
2023-02-28T13:05:23.696Z,6.10
2023-02-28T13:06:23.655Z,6.22
2023-02-28T13:07:23.635Z,6.35
2023-02-28T13:08:23.635Z,6.49
2023-02-28T13:09:23.606Z,6.56
2023-02-28T13:10:23.627Z,6.60
2023-02-28T13:11:23.614Z,6.70
2023-02-28T13:12:23.574Z,6.74
2023-02-28T13:13:23.562Z,6.77
2023-02-28T13:14:23.556Z,6.72
2023-02-28T13:15:23.551Z,6.75
2023-02-28T13:16:23.571Z,6.83
2023-02-28T13:17:23.503Z,6.80
2023-02-28T13:18:23.515Z,6.85